createdAt,value
2018-09-08T00:00:22.534Z,11.13
2018-09-08T00:02:51.394Z,5.97
2018-09-08T00:05:19.846Z,7.23
2018-09-08T00:07:48.306Z,7.20
2018-09-08T00:10:17.184Z,6.67
2018-09-08T00:12:45.995Z,5.97
2018-09-08T00:15:20.348Z,6.20
2018-09-08T00:17:54.317Z,5.80
2018-09-08T00:20:28.212Z,11.47
2018-09-08T00:23:02.543Z,5.85
2018-09-08T00:25:36.715Z,5.27
2018-09-08T00:28:12.229Z,6.30
2018-09-08T00:30:40.711Z,6.10
2018-09-08T00:33:09.740Z,5.40
2018-09-08T00:35:38.895Z,8.63
2018-09-08T00:38:07.960Z,4.30
2018-09-08T00:40:36.687Z,9.13
2018-09-08T00:43:04.896Z,4.30
2018-09-08T00:45:33.634Z,4.80
2018-09-08T00:48:02.679Z,10.05
2018-09-08T00:50:31.516Z,7.03
2018-09-08T00:53:00.604Z,5.17
2018-09-08T00:55:29.362Z,6.40
2018-09-08T00:57:58.362Z,5.20
2018-09-08T01:00:27.425Z,5.62
2018-09-08T01:02:56.111Z,6.25
2018-09-08T01:05:25.239Z,5.20
2018-09-08T01:07:53.975Z,4.12
2018-09-08T01:10:23.053Z,5.75
2018-09-08T01:12:52.145Z,3.85
2018-09-08T01:15:21.233Z,6.03
2018-09-08T01:17:50.327Z,5.65
2018-09-08T01:20:18.712Z,4.28
2018-09-08T01:22:47.765Z,7.03
2018-09-08T01:25:16.785Z,4.55
2018-09-08T01:27:45.830Z,6.70
2018-09-08T01:30:14.834Z,7.12
2018-09-08T01:32:43.588Z,5.35
2018-09-08T01:35:12.582Z,4.95
2018-09-08T01:37:41.943Z,4.83
2018-09-08T01:40:11.059Z,5.55
2018-09-08T01:42:40.216Z,5.12
2018-09-08T01:45:09.169Z,6.08
2018-09-08T01:47:38.663Z,6.60
2018-09-08T01:50:07.083Z,6.03
2018-09-08T01:52:36.138Z,5.87
2018-09-08T01:55:04.586Z,4.62
2018-09-08T01:57:33.362Z,7.00
2018-09-08T02:00:02.459Z,4.12
2018-09-08T02:02:31.560Z,4.10
2018-09-08T02:05:00.290Z,6.20
2018-09-08T02:07:28.687Z,4.92
2018-09-08T02:09:57.087Z,6.87
2018-09-08T02:12:25.853Z,4.22
2018-09-08T02:14:54.550Z,4.42
2018-09-08T02:17:23.670Z,3.83
2018-09-08T02:19:52.763Z,3.95
2018-09-08T02:22:21.271Z,4.92
2018-09-08T02:24:50.664Z,3.90
2018-09-08T02:27:19.321Z,3.87
2018-09-08T02:29:48.054Z,3.50
2018-09-08T02:32:17.129Z,4.47
2018-09-08T02:34:46.327Z,4.93
2018-09-08T02:37:15.145Z,4.63
2018-09-08T02:39:44.351Z,4.10
2018-09-08T02:42:12.767Z,4.08
2018-09-08T02:44:41.641Z,6.20
2018-09-08T02:47:11.740Z,3.77
2018-09-08T02:49:51.655Z,5.05
2018-09-08T02:52:19.503Z,4.50
2018-09-08T02:54:47.018Z,5.97
2018-09-08T02:57:14.924Z,7.53
2018-09-08T02:59:42.459Z,4.55
2018-09-08T03:02:10.001Z,4.30
2018-09-08T03:04:37.462Z,8.05
2018-09-08T03:07:09.215Z,5.30
2018-09-08T03:09:36.990Z,4.40
2018-09-08T03:12:04.536Z,5.85
2018-09-08T03:14:32.094Z,5.37
2018-09-08T03:16:59.662Z,6.97
2018-09-08T03:19:27.187Z,5.87
2018-09-08T03:21:54.692Z,5.65
2018-09-08T03:24:22.229Z,4.00
2018-09-08T03:26:49.772Z,4.30
2018-09-08T03:29:17.357Z,4.70
2018-09-08T03:31:44.837Z,4.30
2018-09-08T03:34:12.771Z,4.17
2018-09-08T03:36:40.420Z,4.87
2018-09-08T03:39:07.947Z,7.83
2018-09-08T03:41:35.575Z,5.53
2018-09-08T03:44:03.119Z,4.95
2018-09-08T03:46:30.613Z,4.92
2018-09-08T03:48:58.120Z,6.58
2018-09-08T03:51:25.653Z,6.70
2018-09-08T03:53:53.194Z,11.10
2018-09-08T03:56:20.649Z,6.95
2018-09-08T03:58:48.124Z,8.25
2018-09-08T04:01:15.804Z,6.55
2018-09-08T04:03:44.547Z,4.83
2018-09-08T04:06:13.606Z,5.72
2018-09-08T04:08:42.818Z,8.25
2018-09-08T04:11:11.936Z,21.85
2018-09-08T04:13:41.131Z,8.88
2018-09-08T04:16:10.035Z,6.92
2018-09-08T04:18:39.114Z,6.40
2018-09-08T04:21:07.859Z,5.40
2018-09-08T04:23:37.233Z,20.48
2018-09-08T04:26:06.567Z,7.65
2018-09-08T04:28:35.275Z,5.85
2018-09-08T04:31:04.709Z,6.55
2018-09-08T04:33:34.181Z,7.05
2018-09-08T04:36:03.195Z,8.75
2018-09-08T04:38:32.343Z,5.37
2018-09-08T04:41:00.652Z,6.03
2018-09-08T04:43:29.911Z,6.55
2018-09-08T04:45:58.272Z,8.50
2018-09-08T04:48:26.942Z,7.03
2018-09-08T04:50:55.655Z,5.83
2018-09-08T04:53:24.707Z,5.55
2018-09-08T04:55:53.508Z,8.13
2018-09-08T04:58:22.162Z,12.45
2018-09-08T05:00:50.915Z,6.72
2018-09-08T05:03:19.551Z,8.38
2018-09-08T05:05:48.622Z,10.20
2018-09-08T05:08:18.109Z,6.22
2018-09-08T05:10:46.781Z,7.20
2018-09-08T05:13:15.856Z,15.65
2018-09-08T05:15:45.199Z,6.65
2018-09-08T05:18:14.445Z,8.23
2018-09-08T05:20:43.442Z,15.75
2018-09-08T05:23:11.963Z,10.60
2018-09-08T05:25:40.975Z,11.48
2018-09-08T05:28:10.699Z,21.45
2018-09-08T05:30:39.445Z,7.58
2018-09-08T05:33:08.223Z,7.80
2018-09-08T05:35:37.263Z,8.28
2018-09-08T05:38:06.018Z,8.23
2018-09-08T05:40:35.148Z,6.25
2018-09-08T05:43:03.633Z,6.33
2018-09-08T05:45:32.422Z,8.73
2018-09-08T05:48:01.532Z,8.15
2018-09-08T05:50:31.284Z,12.30
2018-09-08T05:53:00.273Z,9.25
2018-09-08T05:55:29.325Z,7.40
2018-09-08T05:57:58.086Z,8.07
2018-09-08T06:00:26.583Z,11.33
2018-09-08T06:02:55.472Z,9.93
2018-09-08T06:05:24.277Z,9.43
2018-09-08T06:07:53.060Z,7.97
2018-09-08T06:10:21.963Z,39.33
2018-09-08T06:12:50.840Z,9.60
2018-09-08T06:15:19.673Z,9.80
2018-09-08T06:17:48.722Z,7.33
2018-09-08T06:20:17.210Z,8.00
2018-09-08T06:22:45.633Z,7.90
2018-09-08T06:25:14.382Z,5.60
2018-09-08T06:27:43.150Z,8.03
2018-09-08T06:30:11.567Z,7.60
2018-09-08T06:32:39.965Z,5.10
2018-09-08T06:35:08.094Z,6.27
2018-09-08T06:37:37.047Z,5.43
2018-09-08T06:40:05.235Z,4.93
2018-09-08T06:42:33.990Z,6.50
2018-09-08T06:45:02.495Z,5.13
2018-09-08T06:47:31.382Z,7.07
2018-09-08T06:50:00.217Z,8.63
2018-09-08T06:52:28.618Z,6.67
2018-09-08T06:54:57.406Z,4.37
2018-09-08T06:57:25.873Z,4.73
2018-09-08T06:59:54.653Z,5.37
2018-09-08T07:02:23.415Z,4.27
2018-09-08T07:04:52.154Z,7.73
2018-09-08T07:07:20.562Z,6.50
2018-09-08T07:09:49.294Z,8.43
2018-09-08T07:12:18.076Z,6.07
2018-09-08T07:14:46.861Z,9.10
2018-09-08T07:17:15.257Z,6.63
2018-09-08T07:19:44.075Z,5.23
2018-09-08T07:22:12.887Z,6.17
2018-09-08T07:24:41.933Z,6.10
2018-09-08T07:27:10.821Z,5.47
2018-09-08T07:29:39.251Z,5.90
2018-09-08T07:32:08.036Z,6.67
2018-09-08T07:34:36.456Z,6.43
2018-09-08T07:37:04.919Z,5.23
2018-09-08T07:39:33.319Z,4.10
2018-09-08T07:42:02.127Z,7.90
2018-09-08T07:44:30.940Z,6.23
2018-09-08T07:46:59.699Z,4.80
2018-09-08T07:49:27.998Z,6.03
2018-09-08T07:51:56.755Z,7.03
2018-09-08T07:54:25.495Z,4.13
2018-09-08T07:56:54.231Z,6.27
2018-09-08T07:59:22.726Z,4.77
2018-09-08T08:01:51.683Z,4.27
2018-09-08T08:04:20.585Z,5.00
2018-09-08T08:06:49.661Z,5.90
2018-09-08T08:09:18.631Z,4.37
2018-09-08T08:11:47.483Z,5.43
2018-09-08T08:14:16.212Z,3.27
2018-09-08T08:16:51.393Z,2.00
2018-09-08T08:19:19.786Z,3.77
2018-09-08T08:21:48.572Z,2.20
2018-09-08T08:24:17.335Z,3.63
2018-09-08T08:26:46.079Z,2.87
2018-09-08T08:29:14.566Z,3.60
2018-09-08T08:31:42.993Z,2.90
2018-09-08T08:34:11.812Z,3.30
2018-09-08T08:36:39.972Z,3.43
2018-09-08T08:39:08.509Z,3.13
2018-09-08T08:41:36.887Z,5.93
2018-09-08T08:44:05.719Z,13.23
2018-09-08T08:46:34.542Z,2.73
2018-09-08T08:49:03.236Z,9.60
2018-09-08T08:51:43.436Z,2.73
2018-09-08T08:54:13.381Z,3.13
2018-09-08T08:56:42.122Z,4.60
2018-09-08T08:59:10.547Z,2.73
2018-09-08T09:01:39.353Z,3.10
2018-09-08T09:04:07.742Z,4.47
2018-09-08T09:06:36.942Z,2.73
2018-09-08T09:09:07.944Z,3.13
2018-09-08T09:11:36.681Z,4.40
2018-09-08T09:14:04.816Z,3.17
2018-09-08T09:16:33.198Z,3.13
2018-09-08T09:19:28.755Z,3.80
2018-09-08T09:22:08.450Z,4.07
2018-09-08T09:24:53.336Z,4.07
2018-09-08T09:27:21.781Z,4.03
2018-09-08T09:29:50.218Z,8.90
2018-09-08T09:32:18.706Z,3.33
2018-09-08T09:34:46.827Z,4.90
2018-09-08T09:37:15.358Z,3.80
2018-09-08T09:39:44.286Z,2.47
2018-09-08T09:42:13.052Z,5.93
2018-09-08T09:44:41.154Z,4.03
2018-09-08T09:47:09.566Z,5.50
2018-09-08T09:49:38.376Z,3.97
2018-09-08T09:52:06.809Z,4.90
2018-09-08T09:54:35.242Z,3.37
2018-09-08T09:57:03.706Z,6.60
2018-09-08T09:59:32.117Z,3.37
2018-09-08T10:02:06.214Z,4.87
2018-09-08T10:04:34.995Z,7.10
2018-09-08T10:07:08.147Z,4.27
2018-09-08T10:09:37.603Z,4.00
2018-09-08T10:12:05.875Z,3.30
2018-09-08T10:14:34.185Z,3.70
2018-09-08T10:17:02.253Z,3.03
2018-09-08T10:19:31.012Z,4.13
2018-09-08T10:21:59.366Z,3.97
2018-09-08T10:24:28.131Z,3.07
2018-09-08T10:26:56.656Z,3.50
2018-09-08T10:29:25.141Z,4.00
2018-09-08T10:31:54.033Z,4.17
2018-09-08T10:34:22.159Z,6.33
2018-09-08T10:36:50.853Z,2.93
2018-09-08T10:39:19.655Z,5.00
2018-09-08T10:41:48.064Z,3.00
2018-09-08T10:44:16.523Z,2.77
2018-09-08T10:46:44.656Z,3.37
2018-09-08T10:49:12.793Z,1.97
2018-09-08T10:51:49.373Z,4.70
2018-09-08T10:54:18.183Z,2.70
2018-09-08T10:56:47.100Z,3.10
2018-09-08T10:59:15.460Z,4.07
2018-09-08T11:01:44.309Z,5.03
2018-09-08T11:04:13.499Z,3.80
2018-09-08T11:06:42.249Z,7.73
2018-09-08T11:09:10.341Z,2.67
2018-09-08T11:11:39.125Z,3.10
2018-09-08T11:14:07.697Z,3.03
2018-09-08T11:16:36.247Z,4.87
2018-09-08T11:19:04.677Z,8.43
2018-09-08T11:21:33.075Z,2.00
2018-09-08T11:24:01.579Z,3.50
2018-09-08T11:26:30.350Z,2.93
2018-09-08T11:28:59.102Z,5.90
2018-09-08T11:31:27.874Z,3.40
2018-09-08T11:33:56.622Z,5.40
2018-09-08T11:36:25.895Z,2.83
2018-09-08T11:38:54.372Z,2.17
2018-09-08T11:41:23.186Z,3.30
2018-09-08T11:43:51.881Z,2.40
2018-09-08T11:46:21.236Z,3.93
2018-09-08T11:48:50.005Z,2.50
2018-09-08T11:51:18.939Z,4.53
2018-09-08T11:53:47.985Z,3.17
2018-09-08T11:56:16.699Z,2.83
2018-09-08T11:58:45.115Z,1.90
2018-09-08T12:01:13.879Z,4.03
2018-09-08T12:03:42.652Z,2.87
2018-09-08T12:06:11.483Z,6.53
2018-09-08T12:08:40.284Z,3.80
2018-09-08T12:11:09.051Z,3.00
2018-09-08T12:13:38.429Z,3.83
2018-09-08T12:16:06.683Z,2.70
2018-09-08T12:18:35.150Z,2.50
2018-09-08T12:21:03.596Z,3.93
2018-09-08T12:23:32.373Z,5.90
2018-09-08T12:26:00.887Z,3.27
2018-09-08T12:28:29.637Z,2.90
2018-09-08T12:30:58.443Z,2.37
2018-09-08T12:33:27.409Z,4.50
2018-09-08T12:35:56.218Z,2.83
2018-09-08T12:38:24.926Z,2.73
2018-09-08T12:40:53.508Z,4.87
2018-09-08T12:43:22.286Z,5.00
2018-09-08T12:45:50.702Z,3.17
2018-09-08T12:48:19.472Z,3.50
2018-09-08T12:50:48.256Z,3.57
2018-09-08T12:53:17.072Z,3.53
2018-09-08T12:55:45.647Z,2.57
2018-09-08T12:58:14.407Z,8.27
2018-09-08T13:00:42.875Z,2.37
2018-09-08T13:03:11.778Z,5.60
2018-09-08T13:05:40.240Z,2.60
2018-09-08T13:08:08.715Z,1.80
2018-09-08T13:10:37.179Z,2.07
2018-09-08T13:13:05.292Z,1.67
2018-09-08T13:15:34.017Z,3.80
2018-09-08T13:18:02.071Z,5.20
2018-09-08T13:20:30.146Z,1.77
2018-09-08T13:22:58.903Z,2.50
2018-09-08T13:25:27.647Z,2.10
2018-09-08T13:27:55.713Z,16.57
2018-09-08T13:30:24.354Z,11.60
2018-09-08T13:32:53.261Z,1.90
2018-09-08T13:35:21.638Z,6.93
2018-09-08T13:37:50.390Z,4.10
2018-09-08T13:40:19.006Z,3.80
2018-09-08T13:42:47.790Z,3.47
2018-09-08T13:45:16.555Z,3.50
2018-09-08T13:47:45.307Z,4.20
2018-09-08T13:50:14.120Z,6.57
2018-09-08T13:52:43.430Z,1.63
2018-09-08T13:55:11.929Z,2.33
2018-09-08T13:57:40.655Z,4.17
2018-09-08T14:00:09.053Z,2.13
2018-09-08T14:02:37.506Z,2.37
2018-09-08T14:05:05.599Z,2.10
2018-09-08T14:07:34.300Z,3.77
2018-09-08T14:10:03.046Z,2.03
2018-09-08T14:12:31.462Z,4.37
2018-09-08T14:15:00.079Z,2.60
2018-09-08T14:17:28.808Z,3.70
2018-09-08T14:19:57.237Z,1.80
2018-09-08T14:22:26.031Z,3.83
2018-09-08T14:24:54.794Z,7.00
2018-09-08T14:27:23.203Z,2.47
2018-09-08T14:29:51.940Z,2.30
2018-09-08T14:32:20.413Z,2.03
2018-09-08T14:34:48.822Z,1.80
2018-09-08T14:37:17.286Z,3.50
2018-09-08T14:39:46.165Z,5.87
2018-09-08T14:42:14.607Z,7.10
2018-09-08T14:44:43.414Z,5.33
2018-09-08T14:47:12.178Z,4.00
2018-09-08T14:49:40.953Z,3.83
2018-09-08T14:52:09.726Z,3.57
2018-09-08T14:54:38.500Z,1.93
2018-09-08T14:57:07.286Z,2.40
2018-09-08T14:59:36.146Z,2.10
2018-09-08T15:02:04.288Z,3.17
2018-09-08T15:04:33.105Z,3.70
2018-09-08T15:07:02.239Z,3.03
2018-09-08T15:09:31.226Z,5.27
2018-09-08T15:11:59.689Z,4.00
2018-09-08T15:14:28.506Z,3.37
2018-09-08T15:16:57.236Z,4.70
2018-09-08T15:19:25.768Z,2.90
2018-09-08T15:21:54.654Z,1.90
2018-09-08T15:24:23.509Z,3.17
2018-09-08T15:26:52.547Z,3.20
2018-09-08T15:29:21.430Z,3.10
2018-09-08T15:31:50.307Z,2.07
2018-09-08T15:34:18.811Z,4.90
2018-09-08T15:36:47.203Z,3.20
2018-09-08T15:39:15.683Z,3.20
2018-09-08T15:41:44.250Z,2.63
2018-09-08T15:44:13.066Z,3.03
2018-09-08T15:46:41.622Z,4.20
2018-09-08T15:49:10.326Z,4.70
2018-09-08T15:51:38.860Z,3.77
2018-09-08T15:54:07.243Z,2.43
2018-09-08T15:56:36.469Z,4.90
2018-09-08T15:59:04.743Z,3.37
2018-09-08T16:01:33.458Z,3.20
2018-09-08T16:04:02.247Z,2.93
2018-09-08T16:06:30.699Z,2.73
2018-09-08T16:08:59.476Z,2.13
2018-09-08T16:11:27.763Z,2.07
2018-09-08T16:13:56.509Z,3.47
2018-09-08T16:16:24.849Z,2.40
2018-09-08T16:18:53.365Z,4.10
2018-09-08T16:21:22.126Z,2.10
2018-09-08T16:23:50.861Z,2.23
2018-09-08T16:26:19.116Z,4.63
2018-09-08T16:28:47.787Z,7.30
2018-09-08T16:31:16.531Z,3.83
2018-09-08T16:33:45.032Z,3.67
2018-09-08T16:36:13.459Z,2.70
2018-09-08T16:38:42.491Z,8.10
2018-09-08T16:41:11.307Z,5.03
2018-09-08T16:43:39.793Z,2.77
2018-09-08T16:46:08.181Z,30.83
2018-09-08T16:48:36.636Z,10.43
2018-09-08T16:51:04.785Z,39.10
2018-09-08T16:53:33.560Z,5.70
2018-09-08T16:56:02.076Z,3.70
2018-09-08T16:58:30.478Z,3.37
2018-09-08T17:00:58.942Z,4.93
2018-09-08T17:03:27.326Z,6.00
2018-09-08T17:05:56.120Z,3.17
2018-09-08T17:08:24.870Z,7.23
2018-09-08T17:10:53.316Z,5.37
2018-09-08T17:13:22.082Z,9.70
2018-09-08T17:15:50.904Z,6.83
2018-09-08T17:18:19.353Z,6.77
2018-09-08T17:20:48.049Z,8.07
2018-09-08T17:23:16.789Z,11.23
2018-09-08T17:25:45.235Z,8.47
2018-09-08T17:28:13.529Z,9.10
2018-09-08T17:30:42.446Z,9.23
2018-09-08T17:33:11.439Z,7.30
2018-09-08T17:35:39.843Z,8.87
2018-09-08T17:38:08.312Z,7.30
2018-09-08T17:40:37.200Z,13.77
2018-09-08T17:43:05.400Z,10.87
2018-09-08T17:45:34.187Z,14.07
2018-09-08T17:48:02.945Z,30.93
2018-09-08T17:50:31.731Z,34.13
2018-09-08T17:53:00.543Z,28.40
2018-09-08T17:55:29.040Z,29.00
2018-09-08T17:57:57.552Z,8.80
2018-09-08T18:00:25.799Z,9.70
2018-09-08T18:02:54.586Z,8.77
2018-09-08T18:05:23.102Z,7.23
2018-09-08T18:07:51.558Z,10.33
2018-09-08T18:10:19.998Z,9.73
2018-09-08T18:12:48.727Z,15.93
2018-09-08T18:15:17.203Z,8.10
2018-09-08T18:17:45.715Z,10.73
2018-09-08T18:20:14.503Z,10.20
2018-09-08T18:22:43.260Z,9.33
2018-09-08T18:25:12.068Z,10.27
2018-09-08T18:27:40.543Z,42.60
2018-09-08T18:30:08.937Z,13.27
2018-09-08T18:32:37.572Z,9.20
2018-09-08T18:35:06.641Z,9.17
2018-09-08T18:37:35.080Z,11.87
2018-09-08T18:40:03.573Z,11.50
2018-09-08T18:42:31.981Z,12.73
2018-09-08T18:45:00.559Z,13.10
2018-09-08T18:47:29.346Z,11.03
2018-09-08T18:49:57.814Z,18.37
2018-09-08T18:52:26.593Z,16.63
2018-09-08T18:54:55.341Z,9.37
2018-09-08T18:57:23.655Z,10.67
2018-09-08T18:59:52.088Z,9.33
2018-09-08T19:02:25.434Z,9.83
2018-09-08T19:04:53.815Z,9.20
2018-09-08T19:07:22.586Z,9.67
2018-09-08T19:09:56.734Z,11.87
2018-09-08T19:12:25.476Z,9.77
2018-09-08T19:14:59.814Z,8.43
2018-09-08T19:17:28.707Z,9.43
2018-09-08T19:20:02.633Z,9.60
2018-09-08T19:22:31.519Z,8.90
2018-09-08T19:24:59.984Z,10.10
2018-09-08T19:27:29.039Z,8.50
2018-09-08T19:30:01.392Z,8.40
2018-09-08T19:32:30.946Z,8.40
2018-09-08T19:35:04.453Z,11.70
2018-09-08T19:37:34.487Z,13.90
2018-09-08T19:40:02.905Z,7.87
2018-09-08T19:42:32.293Z,8.60
2018-09-08T19:45:01.094Z,9.23
2018-09-08T19:47:35.363Z,8.87
2018-09-08T19:50:03.782Z,9.97
2018-09-08T19:52:38.164Z,9.77
2018-09-08T19:55:06.287Z,8.57
2018-09-08T19:57:39.835Z,10.50
2018-09-08T20:00:08.050Z,9.00
2018-09-08T20:02:36.791Z,8.93
2018-09-08T20:05:05.280Z,11.57
2018-09-08T20:07:34.032Z,8.60
2018-09-08T20:10:02.410Z,9.83
2018-09-08T20:12:31.484Z,13.63
2018-09-08T20:15:00.233Z,9.80
2018-09-08T20:17:29.010Z,10.30
2018-09-08T20:19:57.753Z,12.90
2018-09-08T20:22:26.511Z,10.97
2018-09-08T20:24:55.253Z,7.40
2018-09-08T20:27:24.010Z,9.67
2018-09-08T20:29:52.721Z,10.57
2018-09-08T20:32:21.570Z,9.50
2018-09-08T20:34:50.363Z,10.83
2018-09-08T20:37:19.332Z,11.63
2018-09-08T20:39:48.138Z,10.70
2018-09-08T20:42:16.895Z,8.80
2018-09-08T20:44:45.466Z,10.43
2018-09-08T20:47:13.599Z,10.60
2018-09-08T20:49:42.028Z,11.20
2018-09-08T20:52:10.827Z,13.37
2018-09-08T20:54:38.959Z,12.93
2018-09-08T20:57:07.701Z,11.27
2018-09-08T20:59:36.171Z,12.47
2018-09-08T21:02:04.310Z,15.90
2018-09-08T21:04:33.120Z,15.50
2018-09-08T21:07:01.813Z,11.53
2018-09-08T21:09:30.638Z,13.37
2018-09-08T21:11:59.394Z,12.67
2018-09-08T21:14:29.187Z,14.40
2018-09-08T21:16:57.936Z,14.10
2018-09-08T21:19:26.812Z,14.23
2018-09-08T21:21:55.810Z,11.90
2018-09-08T21:24:24.577Z,11.23
2018-09-08T21:26:53.415Z,13.03
2018-09-08T21:29:21.871Z,14.80
2018-09-08T21:31:50.663Z,11.13
2018-09-08T21:34:19.073Z,11.30
2018-09-08T21:36:47.856Z,12.83
2018-09-08T21:39:16.311Z,15.53
2018-09-08T21:41:44.823Z,17.17
2018-09-08T21:44:15.347Z,17.03
2018-09-08T21:46:43.804Z,16.10
2018-09-08T21:49:12.594Z,16.90
2018-09-08T21:51:41.097Z,17.83
2018-09-08T21:54:09.868Z,16.63
2018-09-08T21:56:38.268Z,19.20
2018-09-08T21:59:06.669Z,18.27
2018-09-08T22:01:35.475Z,17.73
2018-09-08T22:04:03.945Z,20.43
2018-09-08T22:06:32.368Z,19.50
2018-09-08T22:09:00.791Z,21.50
2018-09-08T22:11:29.506Z,18.27
2018-09-08T22:13:58.466Z,20.10
2018-09-08T22:16:27.276Z,18.10
2018-09-08T22:18:56.042Z,18.00
2018-09-08T22:21:24.766Z,20.37
2018-09-08T22:23:53.573Z,17.50
2018-09-08T22:26:22.296Z,25.80
2018-09-08T22:28:51.052Z,25.70
2018-09-08T22:31:19.486Z,22.07
2018-09-08T22:33:47.893Z,19.47
2018-09-08T22:36:16.342Z,20.50
2018-09-08T22:38:45.411Z,27.67
2018-09-08T22:41:14.332Z,25.00
2018-09-08T22:43:43.447Z,23.05
2018-09-08T22:46:12.217Z,28.57
2018-09-08T22:48:40.974Z,22.70
2018-09-08T22:51:09.833Z,23.73
2018-09-08T22:53:38.531Z,26.75
2018-09-08T22:56:06.931Z,25.47
2018-09-08T22:58:35.971Z,26.12
2018-09-08T23:01:04.363Z,27.87
2018-09-08T23:03:33.057Z,20.90
2018-09-08T23:06:01.718Z,26.63
2018-09-08T23:08:30.462Z,24.50
2018-09-08T23:10:59.259Z,24.00
2018-09-08T23:13:28.927Z,24.80
2018-09-08T23:15:57.034Z,26.63
2018-09-08T23:18:25.775Z,24.45
2018-09-08T23:20:54.899Z,26.85
2018-09-08T23:23:24.011Z,24.20
2018-09-08T23:25:53.074Z,24.70
2018-09-08T23:28:22.095Z,26.07
2018-09-08T23:30:50.885Z,25.33
2018-09-08T23:33:19.896Z,25.15
2018-09-08T23:35:48.995Z,26.07
2018-09-08T23:38:17.727Z,24.37
2018-09-08T23:40:46.794Z,23.57
2018-09-08T23:43:15.511Z,25.88
2018-09-08T23:45:44.569Z,23.67
2018-09-08T23:48:13.710Z,23.52
2018-09-08T23:50:42.476Z,24.13
2018-09-08T23:53:11.551Z,21.97
2018-09-08T23:55:40.344Z,20.87
2018-09-08T23:58:09.521Z,22.03
